Flight Track Log - Related Links

Times and Time Zones

All times are in EDT time to prevent confusion due to time zone crossing. See the UAL6148 flight status page for this flight to view local times or setup timezone preferences in your user account.

Time Position Orientation Groundspeed Altitude Reporting Facility
EDT Latitude Longitude Course Direction KTS MPH feet Rate Location/Type
08:43PM 40.8603 -96.7658 293° West 156 180 1,700  Level Minneapolis Center
08:44PM 40.8833 -96.8378 293° West 227 261 4,400 1,922 Climbing Minneapolis Center
08:45PM 40.8961 -96.8764 294° West 225 259 5,000 2,217 Climbing Minneapolis Center
08:46PM 40.8947 -96.9636 269° West 238 274 7,800 2,537 Climbing Minneapolis Center
08:47PM 40.8772 -97.0494 255° West 241 277 10,200 1,659 Climbing Minneapolis Center
08:48PM 40.8583 -97.1461 256° West 264 304 11,200 1,306 Climbing Minneapolis Center
08:49PM 40.8317 -97.2858 256° West 319 367 12,900 1,548 Climbing Minneapolis Center
08:50PM 40.8083 -97.4039 255° West 324 373 14,400 1,403 Climbing Minneapolis Center
08:51PM 40.7853 -97.5250 256° West 334 384 15,800 1,220 Climbing Minneapolis Center
08:52PM 40.7619 -97.6453 256° West 339 390 16,900 1,122 Climbing Minneapolis Center
08:53PM 40.7375 -97.7703 256° West 348 400 18,100 1,161 Climbing Minneapolis Center
08:54PM 40.7117 -97.8944 255° West 351 404 19,300 1,161 Climbing Minneapolis Center
08:55PM 40.6869 -98.0206 256° West 353 406 20,500 1,016 Climbing Minneapolis Center
08:56PM 40.6617 -98.1475 255° West 356 410 21,400 1,113 Climbing Minneapolis Center
08:57PM 40.6297 -98.3028 255° West 363 418 22,800 1,366 Climbing Minneapolis Center
08:58PM 40.6050 -98.4314 256° West 362 417 24,200 1,415 Climbing Minneapolis Center
08:59PM 40.6164 -98.5578 277° West 348 400 25,700 1,403 Climbing Minneapolis Center
09:00PM 40.6258 -98.6839 276° West 346 398 27,100 1,306 Climbing Minneapolis Center
09:01PM 40.6375 -98.8078 277° West 341 392 28,400 1,306 Climbing Minneapolis Center
09:02PM 40.6489 -98.9317 277° West 339 390 29,800 1,415 Climbing Minneapolis Center
09:03PM 40.6600 -99.0553 277° West 338 389 31,300 1,158 Climbing Minneapolis Center
09:04PM 40.6694 -99.1769 276° West 336 387 32,000 368 Climbing Denver Center
09:05PM 40.6817 -99.3117 277° West 364 419 32,000  Level Denver Center
09:06PM 40.6956 -99.4875 276° West 390 449 32,000  Level Minneapolis Center
09:07PM 40.7092 -99.6372 277° West 405 466 32,000  Level Minneapolis Center
09:08PM 40.7172 -99.7539 275° West 406 467 32,000  Level Denver Center
09:09PM 40.7314 -99.9292 276° West 406 467 32,000 341 Level Denver Center
09:10PM 40.7442 -100.0944 276° West 406 467 32,700 829 Climbing Denver Center
09:11PM 40.7550 -100.2325 276° West 397 457 33,700 1,122 Climbing Denver Center
09:12PM 40.7661 -100.3875 275° West 382 440 35,000 1,122 Climbing Denver Center
09:14PM 40.7744 -100.5172 275° West 372 428 36,000 484 Climbing Denver Center
09:15PM 40.7544 -100.6481 259° West 377 434 36,000  Level Denver Center
09:16PM 40.7281 -100.8131 258° West 400 460 36,000  Level Denver Center
09:17PM 40.7069 -100.9519 259° West 400 460 36,000  Level Denver Center
09:18PM 40.6850 -101.0886 258° West 398 458 36,000  Level Denver Center
09:19PM 40.6586 -101.2489 258° West 401 461 36,000  Level Denver Center
09:20PM 40.6367 -101.3856 258° West 399 459 36,000 -195 Level Denver Center
09:21PM 40.6097 -101.5461 258° West 402 463 35,600 -683 Descending Denver Center
09:22PM 40.5875 -101.6842 258° West 403 464 34,600 -780 Descending Denver Center
09:23PM 40.5628 -101.8222 257° West 405 466 34,000 -293 Descending Denver Center
09:24PM 40.5356 -101.9803 257° West 398 458 34,000  Level Denver Center
09:25PM 40.5125 -102.1161 257° West 397 457 34,000  Level Denver Center
09:26PM 40.4847 -102.2781 257° West 406 467 34,000  Level Denver Center
09:27PM 40.4608 -102.4192 257° West 412 474 34,000  Level Denver Center
09:28PM 40.4347 -102.5603 256° West 415 478 34,000  Level Denver Center
09:29PM 40.4078 -102.7247 258° West 421 484 34,000 -290 Level Denver Center
09:30PM 40.3792 -102.8747 256° West 424 488 33,400 -1,415 Descending Denver Center
09:31PM 40.3525 -103.0283 257° West 432 497 31,100 -2,341 Descending Denver Center
09:32PM 40.3247 -103.1806 257° West 431 496 28,600 -2,371 Descending Denver Center
09:33PM 40.2972 -103.3306 257° West 426 490 26,200 -2,439 Descending Denver Center
09:34PM 40.2650 -103.5006 256° West 402 463 23,600 -2,488 Descending Denver Center
09:35PM 40.2417 -103.6322 257° West 375 432 21,100 -2,537 Descending Denver Center
09:36PM 40.2175 -103.7681 257° West 376 433 18,400 -1,659 Descending Denver Center
09:37PM 40.2036 -103.8828 261° West 311 358 17,700 -1,065 Descending Denver Center
09:38PM 40.2150 -103.9931 278° West 306 352 16,200 -1,366 Descending Denver Center
09:39PM 40.2236 -104.1086 276° West 301 346 14,900 -1,220 Descending Denver Center
09:40PM 40.2353 -104.2192 278° West 307 353 13,700 -1,016 Descending Denver Center
09:41PM 40.2381 -104.3342 272° West 289 333 12,800 -829 Descending Denver Center
09:42PM 40.2244 -104.4219 259° West 260 299 12,000 -976 Descending Denver Center
09:43PM 40.1864 -104.4950 236° Southwest 245 282 10,800 -1,113 Descending Denver Center
09:44PM 40.1436 -104.5742 235° Southwest 247 284 9,700 -927 Descending Denver Center
09:45PM 40.0972 -104.6172 215° Southwest 204 235 8,900 -780 Descending Denver Center
09:46PM 40.0564 -104.6564 216° Southwest 184 212 8,100 -774 Descending Denver Center

Login

Don't have an account? Register now (free) for customized features, flight alerts, and more!